createdAt,value
2018-04-02T00:01:51.294Z,29.27
2018-04-02T00:04:18.879Z,31.02
2018-04-02T00:06:46.472Z,30.88
2018-04-02T00:09:14.820Z,31.27
2018-04-02T00:11:42.447Z,38.33
2018-04-02T00:14:10.033Z,29.37
2018-04-02T00:16:37.623Z,31.45
2018-04-02T00:19:05.246Z,30.80
2018-04-02T00:21:32.825Z,32.83
2018-04-02T00:24:01.247Z,31.50
2018-04-02T00:26:29.575Z,34.45
2018-04-02T00:28:57.176Z,31.67
2018-04-02T00:31:25.524Z,34.60
2018-04-02T00:33:53.200Z,32.33
2018-04-02T00:36:20.783Z,30.60
2018-04-02T00:38:48.364Z,34.80
2018-04-02T00:41:15.981Z,32.10
2018-04-02T00:43:43.560Z,35.78
2018-04-02T00:46:11.176Z,30.67
2018-04-02T00:48:38.752Z,32.17
2018-04-02T00:51:06.347Z,34.42
2018-04-02T00:53:33.938Z,32.08
2018-04-02T00:56:02.311Z,33.28
2018-04-02T00:58:29.896Z,34.15
2018-04-02T01:00:57.544Z,30.60
2018-04-02T01:03:25.128Z,28.48
2018-04-02T01:05:52.700Z,29.00
2018-04-02T01:08:20.305Z,31.73
2018-04-02T01:10:47.892Z,31.15
2018-04-02T01:13:15.479Z,29.98
2018-04-02T01:15:43.077Z,33.83
2018-04-02T01:18:10.684Z,29.48
2018-04-02T01:20:39.020Z,29.50
2018-04-02T01:23:06.624Z,31.12
2018-04-02T01:25:34.202Z,31.45
2018-04-02T01:28:01.780Z,27.27
2018-04-02T01:30:29.375Z,33.47
2018-04-02T01:32:56.956Z,33.15
2018-04-02T01:35:24.556Z,33.42
2018-04-02T01:37:52.144Z,30.52
2018-04-02T01:40:19.735Z,34.70
2018-04-02T01:42:47.311Z,33.38
2018-04-02T01:45:14.920Z,33.72
2018-04-02T01:47:42.502Z,34.67
2018-04-02T01:50:10.100Z,34.35
2018-04-02T01:52:37.705Z,36.08
2018-04-02T01:55:05.290Z,38.10
2018-04-02T01:57:32.920Z,32.80
2018-04-02T02:00:00.505Z,34.03
2018-04-02T02:02:28.114Z,33.13
2018-04-02T02:04:56.464Z,31.12
2018-04-02T02:07:24.068Z,29.75
2018-04-02T02:09:51.650Z,32.05
2018-04-02T02:12:19.997Z,33.35
2018-04-02T02:14:47.588Z,33.50
2018-04-02T02:17:15.180Z,32.72
2018-04-02T02:19:42.812Z,32.65
2018-04-02T02:22:10.391Z,36.22
2018-04-02T02:24:37.969Z,37.63
2018-04-02T02:27:05.580Z,33.45
2018-04-02T02:29:33.914Z,36.92
2018-04-02T02:32:01.603Z,34.35
2018-04-02T02:34:29.226Z,31.92
2018-04-02T02:36:57.572Z,33.80
2018-04-02T02:39:25.150Z,33.22
2018-04-02T02:41:52.908Z,34.90
2018-04-02T02:44:20.503Z,33.03
2018-04-02T02:46:48.087Z,33.00
2018-04-02T02:49:15.687Z,31.95
2018-04-02T02:51:44.036Z,37.38
2018-04-02T02:54:11.617Z,34.40
2018-04-02T02:56:39.268Z,38.15
2018-04-02T02:59:06.856Z,32.20
2018-04-02T03:01:34.429Z,34.53
2018-04-02T03:04:02.055Z,34.83
2018-04-02T03:06:29.647Z,33.75
2018-04-02T03:08:57.229Z,36.38
2018-04-02T03:11:24.851Z,36.50
2018-04-02T03:13:53.209Z,34.40
2018-04-02T03:16:20.800Z,34.72
2018-04-02T03:18:48.450Z,33.28
2018-04-02T03:21:16.026Z,32.83
2018-04-02T03:23:43.616Z,36.30
2018-04-02T03:26:11.219Z,38.17
2018-04-02T03:28:39.560Z,38.65
2018-04-02T03:31:07.145Z,37.65
2018-04-02T03:33:34.761Z,35.67
2018-04-02T03:36:02.358Z,36.38
2018-04-02T03:38:29.949Z,35.80
2018-04-02T03:40:57.561Z,39.53
2018-04-02T03:43:25.148Z,33.60
2018-04-02T03:45:53.491Z,37.35
2018-04-02T03:48:21.116Z,37.58
2018-04-02T03:50:49.476Z,34.58
2018-04-02T03:53:17.071Z,38.35
2018-04-02T03:55:45.435Z,35.40
2018-04-02T03:58:13.015Z,40.60
2018-04-02T04:00:40.595Z,35.70
2018-04-02T04:03:08.214Z,32.88
2018-04-02T04:05:35.803Z,37.35
2018-04-02T04:08:03.394Z,37.30
2018-04-02T04:10:31.003Z,37.45
2018-04-02T04:12:59.353Z,36.72
2018-04-02T04:15:26.967Z,34.47
2018-04-02T04:17:55.335Z,38.60
2018-04-02T04:20:22.904Z,34.95
2018-04-02T04:22:50.483Z,33.45
2018-04-02T04:25:18.083Z,39.65
2018-04-02T04:27:46.431Z,38.67
2018-04-02T04:30:14.012Z,34.80
2018-04-02T04:32:41.620Z,31.33
2018-04-02T04:35:10.064Z,34.10
2018-04-02T04:37:37.649Z,38.47
2018-04-02T04:40:05.268Z,31.85
2018-04-02T04:42:32.852Z,37.75
2018-04-02T04:45:00.437Z,31.05
2018-04-02T04:47:28.041Z,31.40
2018-04-02T04:49:55.620Z,36.55
2018-04-02T04:52:23.205Z,31.40
2018-04-02T04:54:50.815Z,33.42
2018-04-02T04:57:18.388Z,29.30
2018-04-02T04:59:45.963Z,31.60
2018-04-02T05:02:13.579Z,28.60
2018-04-02T05:04:41.242Z,31.42
2018-04-02T05:07:08.918Z,31.75
2018-04-02T05:09:36.519Z,33.88
2018-04-02T05:12:04.088Z,35.03
2018-04-02T05:14:31.663Z,33.35
2018-04-02T05:17:00.056Z,30.25
2018-04-02T05:19:27.641Z,27.75
2018-04-02T05:21:55.223Z,31.48
2018-04-02T05:24:23.600Z,33.67
2018-04-02T05:26:51.189Z,33.42
2018-04-02T05:29:19.636Z,34.55
2018-04-02T05:31:47.245Z,35.80
2018-04-02T05:34:14.828Z,34.83
2018-04-02T05:36:43.196Z,31.83
2018-04-02T05:39:10.815Z,32.17
2018-04-02T05:41:38.392Z,32.97
2018-04-02T05:44:05.971Z,33.47
2018-04-02T05:46:33.575Z,31.08
2018-04-02T05:49:01.151Z,35.70
2018-04-02T05:51:28.732Z,31.90
2018-04-02T05:53:56.343Z,37.10
2018-04-02T05:56:23.937Z,32.25
2018-04-02T05:58:51.517Z,30.50
2018-04-02T06:01:19.129Z,36.05
2018-04-02T06:03:46.715Z,33.17
2018-04-02T06:06:15.070Z,30.80
2018-04-02T06:08:42.693Z,33.47
2018-04-02T06:11:10.279Z,34.13
2018-04-02T06:13:37.885Z,33.58
2018-04-02T06:16:05.501Z,30.60
2018-04-02T06:18:33.855Z,31.67
2018-04-02T06:21:01.440Z,31.05
2018-04-02T06:23:29.102Z,33.72
2018-04-02T06:25:56.689Z,30.75
2018-04-02T06:28:24.276Z,30.70
2018-04-02T06:30:51.877Z,32.42
2018-04-02T06:33:19.457Z,35.13
2018-04-02T06:35:47.040Z,30.77
2018-04-02T06:38:14.638Z,32.10
2018-04-02T06:40:42.220Z,34.10
2018-04-02T06:43:09.794Z,30.85
2018-04-02T06:45:37.408Z,31.75
2018-04-02T06:48:05.751Z,32.58
2018-04-02T06:50:33.336Z,33.28
2018-04-02T06:53:00.990Z,35.83
2018-04-02T06:55:28.549Z,34.42
2018-04-02T06:57:56.134Z,32.42
2018-04-02T07:00:23.740Z,34.47
2018-04-02T07:02:51.324Z,33.72
2018-04-02T07:05:18.915Z,34.53
2018-04-02T07:07:47.293Z,34.03
2018-04-02T07:10:15.627Z,35.03
2018-04-02T07:12:43.216Z,32.28
2018-04-02T07:15:10.815Z,37.22
2018-04-02T07:17:38.408Z,34.30
2018-04-02T07:20:06.757Z,31.90
2018-04-02T07:22:34.360Z,38.17
2018-04-02T07:25:01.928Z,37.58
2018-04-02T07:27:29.499Z,36.70
2018-04-02T07:29:57.116Z,33.78
2018-04-02T07:32:24.705Z,34.83
2018-04-02T07:34:52.391Z,33.83
2018-04-02T07:37:20.482Z,32.85
2018-04-02T07:39:48.153Z,34.42
2018-04-02T07:42:15.736Z,36.45
2018-04-02T07:44:43.344Z,31.42
2018-04-02T07:47:11.693Z,32.75
2018-04-02T07:49:39.280Z,30.30
2018-04-02T07:52:06.883Z,32.28
2018-04-02T07:54:35.229Z,34.92
2018-04-02T07:57:02.855Z,32.47
2018-04-02T07:59:30.440Z,34.88
2018-04-02T08:01:58.007Z,33.88
2018-04-02T08:04:25.592Z,36.78
2018-04-02T08:06:53.203Z,33.10
2018-04-02T08:09:20.783Z,29.90
2018-04-02T08:11:48.367Z,29.87
2018-04-02T08:14:16.752Z,35.17
2018-04-02T08:16:44.335Z,33.20
2018-04-02T08:19:11.919Z,32.25
2018-04-02T08:21:40.298Z,31.65
2018-04-02T08:24:07.875Z,29.92
2018-04-02T08:26:35.442Z,28.65
2018-04-02T08:29:03.048Z,32.28
2018-04-02T08:31:30.629Z,27.80
2018-04-02T08:33:58.216Z,32.38
2018-04-02T08:36:26.136Z,30.33
2018-04-02T08:38:53.774Z,27.27
2018-04-02T08:41:22.077Z,27.80
2018-04-02T08:43:49.679Z,28.02
2018-04-02T08:46:17.261Z,25.02
2018-04-02T08:48:45.611Z,22.77
2018-04-02T08:51:13.240Z,26.60
2018-04-02T08:53:41.580Z,26.62
2018-04-02T08:56:09.167Z,25.15
2018-04-02T08:58:36.784Z,25.83
2018-04-02T09:01:04.361Z,23.70
2018-04-02T09:03:31.952Z,21.92
2018-04-02T09:05:59.564Z,23.05
2018-04-02T09:08:27.135Z,20.52
2018-04-02T09:10:55.302Z,21.62
2018-04-02T09:13:22.915Z,24.45
2018-04-02T09:15:51.256Z,23.62
2018-04-02T09:18:18.827Z,24.02
2018-04-02T09:20:46.441Z,23.35
2018-04-02T09:23:14.028Z,22.58
2018-04-02T09:25:42.375Z,23.87
2018-04-02T09:28:09.988Z,23.02
2018-04-02T09:30:38.001Z,19.85
2018-04-02T09:33:05.585Z,23.25
2018-04-02T09:35:33.190Z,21.08
2018-04-02T09:38:00.767Z,22.37
2018-04-02T09:40:28.359Z,22.70
2018-04-02T09:42:56.737Z,21.55
2018-04-02T09:45:24.315Z,21.62
2018-04-02T09:47:51.896Z,23.95
2018-04-02T09:50:19.535Z,24.10
2018-04-02T09:52:47.125Z,21.85
2018-04-02T09:55:14.717Z,19.73
2018-04-02T09:57:43.106Z,17.85
2018-04-02T10:00:11.464Z,17.83
2018-04-02T10:02:39.041Z,18.65
2018-04-02T10:05:06.755Z,17.48
2018-04-02T10:07:34.257Z,18.58
2018-04-02T10:10:01.928Z,18.37
2018-04-02T10:12:29.483Z,18.37
2018-04-02T10:14:57.862Z,18.42
2018-04-02T10:17:25.422Z,17.58
2018-04-02T10:19:53.041Z,19.05
2018-04-02T10:22:20.631Z,18.52
2018-04-02T10:24:48.220Z,18.40
2018-04-02T10:27:15.839Z,18.98
2018-04-02T10:29:44.194Z,16.40
2018-04-02T10:32:11.859Z,17.35
2018-04-02T10:34:39.418Z,15.95
2018-04-02T10:37:07.016Z,16.67
2018-04-02T10:39:34.596Z,15.45
2018-04-02T10:42:02.197Z,15.30
2018-04-02T10:44:29.802Z,16.05
2018-04-02T10:46:57.450Z,17.27
2018-04-02T10:49:25.068Z,17.15
2018-04-02T10:51:52.648Z,19.42
2018-04-02T10:54:20.258Z,17.67
2018-04-02T10:56:48.635Z,19.40
2018-04-02T10:59:16.224Z,17.73
2018-04-02T11:01:43.798Z,20.97
2018-04-02T11:04:11.388Z,19.60
2018-04-02T11:06:38.971Z,22.13
2018-04-02T11:09:06.552Z,22.48
2018-04-02T11:11:34.164Z,20.50
2018-04-02T11:14:01.752Z,21.37
2018-04-02T11:16:30.108Z,19.65
2018-04-02T11:18:59.213Z,20.65
2018-04-02T11:21:26.809Z,21.30
2018-04-02T11:23:54.387Z,19.73
2018-04-02T11:26:21.985Z,18.37
2018-04-02T11:28:49.544Z,19.40
2018-04-02T11:31:17.094Z,20.63
2018-04-02T11:33:44.707Z,18.45
2018-04-02T11:36:12.292Z,19.58
2018-04-02T11:38:39.879Z,19.15
2018-04-02T11:41:08.240Z,19.77
2018-04-02T11:43:35.805Z,18.73
2018-04-02T11:46:04.159Z,19.37
2018-04-02T11:48:31.779Z,19.80
2018-04-02T11:50:59.349Z,19.30
2018-04-02T11:53:26.908Z,20.23
2018-04-02T11:55:54.498Z,19.87
2018-04-02T11:58:22.061Z,19.77
2018-04-02T12:00:49.615Z,18.80
2018-04-02T12:03:17.218Z,20.20
2018-04-02T12:05:44.801Z,20.45
2018-04-02T12:08:13.225Z,17.77
2018-04-02T12:10:40.841Z,20.30
2018-04-02T12:13:09.194Z,20.65
2018-04-02T12:15:36.781Z,21.77
2018-04-02T12:18:04.402Z,20.90
2018-04-02T12:20:31.986Z,22.73
2018-04-02T12:23:00.328Z,20.43
2018-04-02T12:25:27.937Z,20.93
2018-04-02T12:27:56.265Z,20.50
2018-04-02T12:30:23.825Z,19.93
2018-04-02T12:32:52.234Z,21.07
2018-04-02T12:35:19.811Z,18.53
2018-04-02T12:37:47.363Z,18.20
2018-04-02T12:40:15.049Z,20.83
2018-04-02T12:42:42.607Z,21.00
2018-04-02T12:45:10.188Z,19.90
2018-04-02T12:47:37.872Z,20.13
2018-04-02T12:50:05.470Z,19.87
2018-04-02T12:52:33.055Z,21.80
2018-04-02T12:55:01.447Z,17.90
2018-04-02T12:57:29.066Z,22.80
2018-04-02T12:59:56.582Z,22.00
2018-04-02T13:02:24.159Z,19.47
2018-04-02T13:04:51.712Z,18.20
2018-04-02T13:07:19.265Z,19.07
2018-04-02T13:09:46.843Z,17.17
2018-04-02T13:12:14.455Z,17.27
2018-04-02T13:14:42.020Z,18.47
2018-04-02T13:17:09.654Z,19.30
2018-04-02T13:19:37.961Z,17.67
2018-04-02T13:22:05.533Z,18.43
2018-04-02T13:24:33.119Z,19.20
2018-04-02T13:27:00.710Z,20.67
2018-04-02T13:29:28.269Z,20.07
2018-04-02T13:31:55.919Z,19.10
2018-04-02T13:34:23.523Z,17.30
2018-04-02T13:36:51.087Z,16.80
2018-04-02T13:39:18.675Z,18.50
2018-04-02T13:41:47.040Z,15.75
2018-04-02T13:44:14.630Z,16.40
2018-04-02T13:46:42.249Z,16.10
2018-04-02T13:49:09.836Z,16.90
2018-04-02T13:51:37.490Z,16.35
2018-04-02T13:54:05.109Z,16.87
2018-04-02T13:56:32.710Z,16.85
2018-04-02T13:59:01.056Z,16.20
2018-04-02T14:01:28.654Z,15.75
2018-04-02T14:03:56.314Z,16.53
2018-04-02T14:19:28.459Z,17.90
2018-04-02T14:21:56.122Z,16.67
2018-04-02T14:24:23.673Z,16.20
2018-04-02T14:26:51.280Z,16.17
2018-04-02T14:29:18.901Z,16.97
2018-04-02T14:31:47.221Z,15.23
2018-04-02T14:34:14.844Z,15.90
2018-04-02T14:36:43.214Z,16.30
2018-04-02T14:39:10.805Z,18.20
2018-04-02T14:41:39.197Z,17.20
2018-04-02T14:44:07.555Z,16.37
2018-04-02T14:46:35.158Z,18.02
2018-04-02T14:49:02.779Z,16.27
2018-04-02T14:51:30.386Z,14.87
2018-04-02T14:53:57.979Z,15.48
2018-04-02T14:56:25.623Z,17.05
2018-04-02T14:58:53.209Z,17.25
2018-04-02T15:01:20.792Z,16.67
2018-04-02T15:03:48.410Z,17.10
2018-04-02T15:06:16.005Z,17.48
2018-04-02T15:08:43.596Z,17.77
2018-04-02T15:11:11.197Z,15.20
2018-04-02T15:13:38.784Z,15.60
2018-04-02T15:16:07.147Z,14.70
2018-04-02T15:18:34.756Z,16.87
2018-04-02T15:21:02.354Z,16.52
2018-04-02T15:23:29.940Z,14.13
2018-04-02T16:47:54.768Z,13.52
2018-04-02T16:50:23.115Z,13.57
2018-04-02T16:52:50.697Z,14.52
2018-04-02T16:55:18.304Z,14.05
2018-04-02T16:57:46.663Z,13.57
2018-04-02T17:00:14.248Z,12.98
2018-04-02T17:02:41.882Z,13.95
2018-04-02T17:05:09.467Z,15.95
2018-04-02T17:07:37.060Z,14.20
2018-04-02T17:10:04.688Z,12.25
2018-04-02T17:12:32.285Z,13.98
2018-04-02T17:14:59.868Z,11.82
2018-04-02T17:17:27.472Z,12.57
2018-04-02T17:19:55.057Z,11.10
2018-04-02T17:22:23.405Z,12.70
2018-04-02T17:24:51.021Z,13.13
2018-04-02T17:27:19.465Z,13.95
2018-04-02T17:29:47.038Z,12.48
2018-04-02T17:32:14.652Z,10.90
2018-04-02T17:34:42.232Z,13.38
2018-04-02T17:37:10.567Z,10.80
2018-04-02T17:39:38.176Z,10.57
2018-04-02T17:42:05.758Z,10.95
2018-04-02T17:44:33.342Z,11.90
2018-04-02T17:47:01.720Z,9.80
2018-04-02T17:49:29.306Z,12.23
2018-04-02T17:51:57.650Z,11.00
2018-04-02T17:54:25.270Z,12.32
2018-04-02T17:56:53.799Z,13.68
2018-04-02T17:59:21.394Z,10.35
2018-04-02T18:01:49.024Z,12.60
2018-04-02T18:04:16.608Z,10.50
2018-04-02T18:06:44.187Z,9.45
2018-04-02T18:09:11.799Z,11.93
2018-04-02T18:11:39.385Z,12.13
2018-04-02T18:14:06.972Z,11.43
2018-04-02T18:16:34.567Z,11.25
2018-04-02T18:19:02.139Z,9.77
2018-04-02T18:21:29.717Z,9.05
2018-04-02T18:23:57.320Z,10.25
2018-04-02T18:26:24.902Z,10.23
2018-04-02T18:28:52.475Z,10.00
2018-04-02T18:31:20.094Z,11.25
2018-04-02T18:33:48.457Z,13.62
2018-04-02T18:36:16.040Z,13.98
2018-04-02T18:38:43.658Z,12.93
2018-04-02T18:41:11.241Z,11.40
2018-04-02T18:43:38.822Z,13.32
2018-04-02T18:46:06.433Z,11.35
2018-04-02T18:48:34.009Z,11.48
2018-04-02T18:51:01.586Z,10.40
2018-04-02T18:53:29.972Z,9.85
2018-04-02T18:55:57.539Z,11.50
2018-04-02T18:58:25.123Z,9.98
2018-04-02T19:00:52.969Z,9.15
2018-04-02T19:03:20.539Z,11.77
2018-04-02T19:05:48.109Z,9.50
2018-04-02T19:08:15.718Z,10.43
2018-04-02T19:10:43.292Z,10.95
2018-04-02T19:13:10.873Z,11.40
2018-04-02T19:15:39.254Z,11.95
2018-04-02T19:18:06.840Z,11.77
2018-04-02T19:20:34.417Z,10.93
2018-04-02T19:23:02.793Z,10.70
2018-04-02T19:25:30.373Z,11.82
2018-04-02T19:27:58.713Z,15.40
2018-04-02T19:30:26.320Z,17.35
2018-04-02T19:32:53.903Z,17.42
2018-04-02T19:35:22.378Z,14.63
2018-04-02T19:37:49.992Z,16.05
2018-04-02T19:40:17.571Z,17.40
2018-04-02T19:42:45.152Z,12.57
2018-04-02T19:45:12.768Z,13.23
2018-04-02T19:47:40.349Z,13.32
2018-04-02T19:50:07.972Z,12.55
2018-04-02T19:52:35.854Z,14.13
2018-04-02T19:55:03.843Z,11.65
2018-04-02T19:57:31.452Z,12.93
2018-04-02T19:59:59.071Z,13.75
2018-04-02T20:02:26.655Z,12.98
2018-04-02T20:04:54.267Z,12.88
2018-04-02T20:07:21.964Z,14.30
2018-04-02T20:09:50.531Z,12.13
2018-04-02T20:12:18.418Z,13.10
2018-04-02T20:14:46.263Z,13.05
2018-04-02T20:17:13.876Z,15.50
2018-04-02T20:19:41.487Z,14.50
2018-04-02T20:22:09.868Z,13.10
2018-04-02T20:24:38.220Z,15.63
2018-04-02T20:27:06.089Z,16.20
2018-04-02T20:29:33.688Z,13.62
2018-04-02T20:32:01.285Z,12.77
2018-04-02T20:34:29.645Z,16.45
2018-04-02T20:36:57.247Z,14.82
2018-04-02T20:39:25.597Z,14.52
2018-04-02T20:41:53.172Z,15.23
2018-04-02T20:44:20.788Z,13.40
2018-04-02T20:46:49.143Z,13.73
2018-04-02T20:49:16.892Z,14.95
2018-04-02T20:51:44.543Z,15.38
2018-04-02T20:54:12.134Z,17.35
2018-04-02T20:56:39.707Z,14.95
2018-04-02T20:59:07.321Z,15.07
2018-04-02T21:01:34.908Z,14.60
2018-04-02T21:04:02.496Z,13.43
2018-04-02T21:06:30.872Z,16.25
2018-04-02T21:08:58.453Z,15.57
2018-04-02T21:11:26.824Z,15.25
2018-04-02T21:13:54.521Z,15.77
2018-04-02T21:16:23.012Z,14.68
2018-04-02T21:18:50.636Z,13.32
2018-04-02T21:21:18.244Z,13.15
2018-04-02T21:23:45.816Z,12.48
2018-04-02T21:26:13.409Z,12.18
2018-04-02T21:28:41.864Z,14.85
2018-04-02T21:31:09.477Z,13.93
2018-04-02T21:33:37.107Z,12.02
2018-04-02T21:36:04.712Z,13.30
2018-04-02T21:38:32.283Z,13.55
2018-04-02T21:40:59.856Z,12.50
2018-04-02T21:43:27.473Z,14.90
2018-04-02T21:45:55.049Z,14.10
2018-04-02T21:48:22.624Z,14.30
2018-04-02T21:50:50.297Z,14.87
2018-04-02T21:53:17.884Z,13.05
2018-04-02T21:55:45.466Z,12.40
2018-04-02T21:58:13.073Z,13.35
2018-04-02T22:00:40.712Z,11.90
2018-04-02T22:03:08.288Z,10.38
2018-04-02T22:05:35.900Z,12.00
2018-04-02T22:08:09.340Z,13.00
2018-04-02T22:10:36.936Z,10.95
2018-04-02T22:13:04.511Z,10.25
2018-04-02T22:15:32.088Z,10.45
2018-04-02T22:17:59.692Z,11.75
2018-04-02T22:20:27.276Z,10.57
2018-04-02T22:22:55.629Z,11.23
2018-04-02T22:25:23.249Z,12.35
2018-04-02T22:27:51.591Z,12.57
2018-04-02T22:30:19.168Z,10.73
2018-04-02T22:32:46.775Z,10.32
2018-04-02T22:35:14.364Z,14.93
2018-04-02T22:37:42.703Z,9.95
2018-04-02T22:40:10.304Z,10.55
2018-04-02T22:42:38.328Z,11.30
2018-04-02T22:45:05.965Z,11.12
2018-04-02T22:47:33.576Z,12.10
2018-04-02T22:50:01.145Z,10.90
2018-04-02T22:52:28.729Z,12.15
2018-04-02T22:54:56.316Z,10.35
2018-04-02T22:57:23.896Z,10.20
2018-04-02T22:59:51.477Z,11.52
2018-04-02T23:02:19.084Z,10.55
2018-04-02T23:04:47.425Z,10.90
2018-04-02T23:07:15.005Z,11.30
2018-04-02T23:09:42.620Z,11.95
2018-04-02T23:12:10.183Z,10.43
2018-04-02T23:14:37.861Z,13.00
2018-04-02T23:17:05.469Z,10.60
2018-04-02T23:19:33.048Z,11.80
2018-04-02T23:22:00.644Z,11.02
2018-04-02T23:24:28.280Z,11.02
2018-04-02T23:26:56.714Z,10.63
2018-04-02T23:29:24.292Z,12.13
2018-04-02T23:31:51.904Z,9.95
2018-04-02T23:34:20.249Z,9.05
2018-04-02T23:36:47.825Z,10.70
2018-04-02T23:39:15.440Z,10.57
2018-04-02T23:41:43.785Z,9.60
2018-04-02T23:44:11.360Z,10.73
2018-04-02T23:46:38.968Z,10.27
2018-04-02T23:49:06.546Z,11.40
2018-04-02T23:51:34.123Z,10.35
2018-04-02T23:54:02.493Z,10.32
2018-04-02T23:56:30.860Z,11.30
2018-04-02T23:58:58.432Z,13.07
